Startpagina
METAR-TAF:

METAR-TAF

Vliegvelden :

Nouakchott, Mauritanië

Internationale luchthaven van Nouakchott

breedte: 18-18-36N, lengte: 015-58-11W, hoogte: 3 m

Actueel weer

Dit bericht is 20 minuten geleden gemaakt, om 05:00 UTC
Wind 7 kt uit het noordoosten
Temperatuur 13°C
Vochtigheid 54%
Druk 1015 hPa
Zicht: 8000 m

METAR: GQNO 200500Z 04007KT 8000 NSC 13/04 Q1015 NOSIG

Tijdstip: 05:20 (05:20 UTC)

Verwachting

Dit bericht is 6 uur en het 20 minuten geleden gemaakt, om 23:00 UTC
Verwachting geldig van 20 om 00 UTC tot 21 om 06 UTC
Wind 5 kt uit het noordnoordoosten
Zicht: 8000 m
Wijzigt naar
van 20 om 07 UTC tot 20 om 10 UTC
Wind 15 kt uit het oostnoordoosten

TAF: GQNO 192300Z 2000/2106 02005KT 8000 NSC BECMG 2007/2010 07015KT

Waarnemingen en weersverwachtingen van meer dan 4000 vliegvelden (METAR en TAF).

De beschikbare stations zijn de gele en rode punten op de kaart.

Ga met uw muis naar het station om de naam te zien.

Klik dan om waarnemingen en weersverwachtingen te zien.

kaart wijzigen: klik op de groene knoppen met een zwart kruis om in te zoomen, op de groene knop met een streepje om uit te zoomen of op de groene pijlen voor aangrenzende kaarten.


METAR-TAF: